Time;durP1;ratioP1;P1;durP2;ratioP2;P2;SDS_P1;SDS_P2;PMS_P1;PMS_P2;Temp;Humidity;BMP_temperature;BMP_pressure;BME280_temperature;BME280_humidity;BME280_pressure;Samples;Min_cycle;Max_cycle;Signal;HPM_P1;HPM_P2
2023/03/23 00:00:08;;;;;;;;;;;23.70;99.90;;;;;;4917120;29;20280;-53
2023/03/23 00:02:35;;;;;;;;;;;23.70;99.90;;;;;;4917175;29;19907;-54
2023/03/23 00:05:03;;;;;;;;;;;23.70;99.90;;;;;;4915677;29;19915;-54
2023/03/23 00:07:28;;;;;;;;;;;23.70;99.90;;;;;;4916526;29;19966;-55
2023/03/23 00:09:55;;;;;;;;;;;23.70;99.90;;;;;;4916078;29;19919;-54
2023/03/23 00:12:33;;;;;;;;;;;23.60;99.90;;;;;;4917119;29;20011;-53
2023/03/23 00:15:00;;;;;;;;;;;23.60;99.90;;;;;;4917215;29;20245;-54
2023/03/23 00:17:26;;;;;;;;;;;23.60;99.90;;;;;;4916428;29;19982;-55
2023/03/23 00:19:52;;;;;;;;;;;23.60;99.90;;;;;;4915721;29;19907;-53
2023/03/23 00:22:21;;;;;;;;;;;23.60;99.90;;;;;;4916423;29;20261;-55
2023/03/23 00:24:47;;;;;;;;;;;23.60;99.90;;;;;;4916037;29;19911;-55
2023/03/23 00:27:14;;;;;;;;;;;23.60;99.90;;;;;;4916455;29;20376;-54
2023/03/23 00:29:40;;;;;;;;;;;23.60;99.90;;;;;;4916842;29;20001;-54
2023/03/23 00:32:06;;;;;;;;;;;23.60;99.90;;;;;;4915582;29;19954;-54
2023/03/23 00:34:34;;;;;;;;;;;23.60;99.90;;;;;;4916786;29;19911;-54
2023/03/23 00:37:00;;;;;;;;;;;23.50;99.90;;;;;;4916686;29;19918;-54
2023/03/23 00:39:26;;;;;;;;;;;23.50;99.90;;;;;;4916432;29;19911;-54
2023/03/23 00:41:53;;;;;;;;;;;23.50;99.90;;;;;;4916260;29;20356;-54
2023/03/23 00:44:19;;;;;;;;;;;23.50;99.90;;;;;;4916182;29;19917;-55
2023/03/23 00:46:45;;;;;;;;;;;23.50;99.90;;;;;;4913600;29;19907;-54
2023/03/23 00:49:15;;;;;;;;;;;23.50;99.90;;;;;;4916053;29;20283;-54
2023/03/23 00:51:41;;;;;;;;;;;23.50;99.90;;;;;;4916125;29;19911;-55
2023/03/23 00:54:07;;;;;;;;;;;23.50;99.90;;;;;;4915563;29;20360;-54
2023/03/23 00:56:32;;;;;;;;;;;23.40;99.90;;;;;;4916553;29;19966;-55
2023/03/23 00:58:58;;;;;;;;;;;23.40;99.90;;;;;;4916660;29;20391;-55
2023/03/23 01:01:23;;;;;;;;;;;23.40;99.90;;;;;;4911785;23;19971;-47
2023/03/23 01:03:49;;;;;;;;;;;23.40;99.90;;;;;;4897519;29;19950;-48
2023/03/23 01:06:15;;;;;;;;;;;23.40;99.90;;;;;;4895986;29;19911;-47
2023/03/23 01:08:46;;;;;;;;;;;23.40;99.90;;;;;;4896377;29;19914;-48
2023/03/23 01:11:14;;;;;;;;;;;23.40;99.90;;;;;;4897593;29;19962;-47
2023/03/23 01:13:41;;;;;;;;;;;23.40;99.90;;;;;;4903998;29;19912;-49
2023/03/23 01:16:07;;;;;;;;;;;23.40;99.90;;;;;;4910306;29;19923;-48
2023/03/23 01:18:33;;;;;;;;;;;23.40;99.90;;;;;;4904538;29;19919;-48
2023/03/23 01:21:03;;;;;;;;;;;23.40;99.90;;;;;;4908403;29;19922;-48
2023/03/23 01:23:29;;;;;;;;;;;23.30;99.90;;;;;;4914522;29;19911;-47
2023/03/23 01:25:57;;;;;;;;;;;23.30;99.90;;;;;;4916313;29;19966;-47
2023/03/23 01:28:23;;;;;;;;;;;23.30;99.90;;;;;;4909947;29;19911;-46
2023/03/23 01:30:48;;;;;;;;;;;23.30;99.90;;;;;;4882180;29;19930;-47
2023/03/23 01:33:14;;;;;;;;;;;23.30;99.90;;;;;;4890310;29;19907;-47
2023/03/23 01:35:40;;;;;;;;;;;23.30;99.90;;;;;;4900866;29;19912;-46
2023/03/23 01:38:06;;;;;;;;;;;23.30;99.90;;;;;;4900776;29;19915;-47
2023/03/23 01:40:31;;;;;;;;;;;23.30;99.90;;;;;;4900908;29;20332;-47
2023/03/23 01:42:57;;;;;;;;;;;23.20;99.90;;;;;;4898754;29;20257;-47
2023/03/23 01:45:27;;;;;;;;;;;23.20;99.90;;;;;;4891762;29;19919;-47
2023/03/23 01:47:53;;;;;;;;;;;23.20;99.90;;;;;;4900328;29;20376;-47
2023/03/23 01:50:22;;;;;;;;;;;23.20;99.90;;;;;;4900697;29;20010;-47
2023/03/23 01:52:49;;;;;;;;;;;23.20;99.90;;;;;;4900608;29;19911;-47
2023/03/23 01:55:15;;;;;;;;;;;23.20;99.90;;;;;;4907736;29;20388;-47
2023/03/23 01:57:41;;;;;;;;;;;23.20;99.90;;;;;;4904245;29;20022;-48
2023/03/23 02:00:14;;;;;;;;;;;23.20;99.90;;;;;;4901024;29;20403;-47
2023/03/23 02:02:41;;;;;;;;;;;23.20;99.90;;;;;;4900300;29;19911;-48
2023/03/23 02:05:10;;;;;;;;;;;23.10;99.90;;;;;;4897828;29;19958;-47
2023/03/23 02:07:36;;;;;;;;;;;23.10;99.90;;;;;;4897546;29;19915;-50
2023/03/23 02:10:02;;;;;;;;;;;23.10;99.90;;;;;;4896110;29;19919;-47
2023/03/23 02:12:27;;;;;;;;;;;23.20;99.90;;;;;;4897872;29;19916;-48
2023/03/23 02:14:53;;;;;;;;;;;23.10;99.90;;;;;;4898287;29;20043;-47
2023/03/23 02:17:25;;;;;;;;;;;23.10;99.90;;;;;;4900161;29;20032;-46
2023/03/23 02:20:09;;;;;;;;;;;23.10;99.90;;;;;;4897521;29;20469;-49
2023/03/23 02:22:38;;;;;;;;;;;23.10;99.90;;;;;;4900210;29;19911;-48
2023/03/23 02:25:09;;;;;;;;;;;23.10;99.90;;;;;;4899961;29;20016;-47
2023/03/23 02:27:49;;;;;;;;;;;23.10;99.90;;;;;;4900098;29;19907;-47
2023/03/23 02:30:21;;;;;;;;;;;23.00;99.90;;;;;;4899893;29;19907;-48
2023/03/23 02:33:15;;;;;;;;;;;23.10;99.90;;;;;;4899867;29;20319;-47
2023/03/23 02:35:44;;;;;;;;;;;23.10;99.90;;;;;;4931333;29;20271;-47
2023/03/23 02:38:15;;;;;;;;;;;23.00;99.90;;;;;;4899919;29;19915;-47
2023/03/23 02:40:42;;;;;;;;;;;23.00;99.90;;;;;;4899083;29;19931;-47
2023/03/23 02:43:10;;;;;;;;;;;23.00;99.90;;;;;;4899856;29;19908;-47
2023/03/23 02:45:36;;;;;;;;;;;23.00;99.90;;;;;;4930008;29;20397;-47
2023/03/23 02:48:03;;;;;;;;;;;23.00;99.90;;;;;;4899691;29;19912;-47
2023/03/23 02:50:30;;;;;;;;;;;23.00;99.90;;;;;;4914037;29;19908;-50
2023/03/23 02:52:58;;;;;;;;;;;23.00;99.90;;;;;;4899637;29;19955;-49
2023/03/23 02:55:24;;;;;;;;;;;23.00;99.90;;;;;;4899224;29;19908;-47
2023/03/23 02:57:52;;;;;;;;;;;23.00;99.90;;;;;;4899375;29;19972;-48
2023/03/23 03:00:18;;;;;;;;;;;23.00;99.90;;;;;;4899699;29;20006;-47
2023/03/23 03:02:52;;;;;;;;;;;22.90;99.90;;;;;;4899332;29;19909;-48
2023/03/23 03:05:30;;;;;;;;;;;22.90;99.90;;;;;;4913520;29;19911;-48
2023/03/23 03:08:07;;;;;;;;;;;22.90;99.90;;;;;;4899184;29;19955;-48
2023/03/23 03:10:46;;;;;;;;;;;22.90;99.90;;;;;;4899149;29;19967;-47
2023/03/23 03:13:18;;;;;;;;;;;22.90;99.90;;;;;;4899400;29;19907;-47
2023/03/23 03:16:09;;;;;;;;;;;22.90;99.90;;;;;;4887002;29;20010;-47
2023/03/23 03:18:42;;;;;;;;;;;22.90;99.90;;;;;;4900329;29;19915;-47
2023/03/23 03:21:12;;;;;;;;;;;22.90;99.90;;;;;;4899338;29;19963;-47
2023/03/23 03:23:41;;;;;;;;;;;22.90;99.90;;;;;;4899103;29;19979;-47
2023/03/23 03:26:09;;;;;;;;;;;22.80;99.90;;;;;;4898891;29;19934;-47
2023/03/23 03:28:35;;;;;;;;;;;22.80;99.90;;;;;;4898632;29;19915;-47
2023/03/23 03:31:02;;;;;;;;;;;22.80;99.90;;;;;;4898945;29;19908;-47
2023/03/23 03:33:30;;;;;;;;;;;22.80;99.90;;;;;;4898704;29;19951;-47
2023/03/23 03:35:57;;;;;;;;;;;22.80;99.90;;;;;;4898624;29;19942;-47
2023/03/23 03:38:23;;;;;;;;;;;22.80;99.90;;;;;;4898493;29;19943;-47
2023/03/23 03:40:48;;;;;;;;;;;22.80;99.90;;;;;;4898731;29;19907;-47
2023/03/23 03:43:14;;;;;;;;;;;22.80;99.90;;;;;;4898629;29;19907;-47
2023/03/23 03:45:41;;;;;;;;;;;22.80;99.90;;;;;;4898652;29;20002;-47
2023/03/23 03:48:07;;;;;;;;;;;22.80;99.90;;;;;;4898265;29;20404;-48
2023/03/23 03:50:33;;;;;;;;;;;22.80;99.90;;;;;;4898382;29;20005;-47
2023/03/23 03:52:58;;;;;;;;;;;22.70;99.90;;;;;;4912798;29;20257;-48
2023/03/23 03:55:25;;;;;;;;;;;22.80;99.90;;;;;;4898275;29;19907;-47
2023/03/23 03:57:50;;;;;;;;;;;22.80;99.90;;;;;;4898193;29;20289;-47
2023/03/23 04:00:16;;;;;;;;;;;22.70;99.90;;;;;;4922213;23;20058;-53
2023/03/23 04:02:43;;;;;;;;;;;22.70;99.90;;;;;;4936175;29;20409;-53
2023/03/23 04:05:09;;;;;;;;;;;22.70;99.90;;;;;;4966681;28;19913;-53
2023/03/23 04:07:38;;;;;;;;;;;22.70;99.90;;;;;;4935915;29;20345;-53
2023/03/23 04:10:05;;;;;;;;;;;22.70;99.90;;;;;;4935936;29;19911;-53
2023/03/23 04:12:31;;;;;;;;;;;22.70;99.90;;;;;;4935903;29;19913;-53
2023/03/23 04:14:57;;;;;;;;;;;22.70;99.90;;;;;;4935781;29;19934;-53
2023/03/23 04:17:25;;;;;;;;;;;22.70;99.90;;;;;;4935596;29;20311;-53
2023/03/23 04:19:51;;;;;;;;;;;22.70;99.90;;;;;;4950413;29;19954;-54
2023/03/23 04:22:17;;;;;;;;;;;22.70;99.90;;;;;;4935800;29;19957;-53
2023/03/23 04:24:42;;;;;;;;;;;22.70;99.90;;;;;;4935939;29;20356;-54
2023/03/23 04:27:08;;;;;;;;;;;22.70;99.90;;;;;;4935322;29;19914;-54
2023/03/23 04:29:34;;;;;;;;;;;22.70;99.90;;;;;;4935504;29;20005;-54
2023/03/23 04:32:01;;;;;;;;;;;22.60;99.90;;;;;;4935450;29;19953;-54
2023/03/23 04:34:27;;;;;;;;;;;22.70;99.90;;;;;;4935492;29;19907;-54
2023/03/23 04:36:52;;;;;;;;;;;22.60;99.90;;;;;;4950186;29;19922;-54
2023/03/23 04:39:18;;;;;;;;;;;22.70;99.90;;;;;;4935471;29;19907;-54
2023/03/23 04:41:45;;;;;;;;;;;22.70;99.90;;;;;;4950420;29;19914;-54
2023/03/23 04:44:17;;;;;;;;;;;22.60;99.90;;;;;;4935440;29;19906;-54
2023/03/23 04:46:45;;;;;;;;;;;22.60;99.90;;;;;;4935557;29;19962;-54
2023/03/23 04:49:10;;;;;;;;;;;22.60;99.90;;;;;;4935299;29;19906;-53
2023/03/23 04:51:39;;;;;;;;;;;22.60;99.90;;;;;;4935184;29;19915;-53
2023/03/23 04:54:04;;;;;;;;;;;22.60;99.90;;;;;;4935362;29;19913;-54
2023/03/23 04:56:30;;;;;;;;;;;22.60;99.90;;;;;;4935068;29;19906;-54
2023/03/23 04:58:55;;;;;;;;;;;22.60;99.90;;;;;;4935255;29;20362;-52
2023/03/23 05:01:21;;;;;;;;;;;22.60;99.90;;;;;;4935914;29;19978;-54
2023/03/23 05:03:47;;;;;;;;;;;22.60;99.90;;;;;;4939277;29;20370;-54
2023/03/23 05:06:13;;;;;;;;;;;22.60;99.90;;;;;;4941479;29;19907;-54
2023/03/23 05:08:39;;;;;;;;;;;22.50;99.90;;;;;;4941584;29;19917;-54
2023/03/23 05:11:05;;;;;;;;;;;22.50;99.90;;;;;;4941449;29;19911;-54
2023/03/23 05:13:32;;;;;;;;;;;22.50;99.90;;;;;;4941335;29;19914;-54
2023/03/23 05:15:57;;;;;;;;;;;22.50;99.90;;;;;;4941538;29;19914;-55
2023/03/23 05:18:23;;;;;;;;;;;22.50;99.90;;;;;;4941247;29;19915;-54
2023/03/23 05:20:52;;;;;;;;;;;22.50;99.90;;;;;;4941579;29;19906;-53
2023/03/23 05:23:20;;;;;;;;;;;22.50;99.90;;;;;;4941597;29;19954;-54
2023/03/23 05:25:52;;;;;;;;;;;22.50;99.90;;;;;;4941474;29;20312;-54
2023/03/23 05:28:18;;;;;;;;;;;22.50;99.90;;;;;;4941429;29;19907;-54
2023/03/23 05:30:44;;;;;;;;;;;22.50;99.90;;;;;;4941381;29;19906;-54
2023/03/23 05:33:09;;;;;;;;;;;22.50;99.90;;;;;;4941156;29;19965;-54
2023/03/23 05:35:36;;;;;;;;;;;22.50;99.90;;;;;;4941249;29;20276;-54
2023/03/23 05:38:03;;;;;;;;;;;22.50;99.90;;;;;;4941121;29;20009;-54
2023/03/23 05:40:29;;;;;;;;;;;22.40;99.90;;;;;;4941087;29;19913;-53
2023/03/23 05:42:58;;;;;;;;;;;22.40;99.90;;;;;;4941314;29;20278;-53
2023/03/23 05:45:24;;;;;;;;;;;22.40;99.90;;;;;;4941151;29;19934;-53
2023/03/23 05:47:51;;;;;;;;;;;22.40;99.90;;;;;;4941341;29;19974;-53
2023/03/23 05:50:17;;;;;;;;;;;22.40;99.90;;;;;;4941406;29;19913;-53
2023/03/23 05:52:43;;;;;;;;;;;22.40;99.90;;;;;;4941077;29;19914;-53
2023/03/23 05:55:08;;;;;;;;;;;22.40;99.90;;;;;;4971841;28;19910;-53
2023/03/23 05:57:34;;;;;;;;;;;22.40;99.90;;;;;;4940978;29;19915;-54
2023/03/23 06:00:05;;;;;;;;;;;22.40;99.90;;;;;;4940666;29;19926;-54
2023/03/23 06:02:31;;;;;;;;;;;22.40;99.90;;;;;;4941066;29;19961;-54
2023/03/23 06:04:57;;;;;;;;;;;22.40;99.90;;;;;;4940982;29;19997;-53
2023/03/23 06:07:24;;;;;;;;;;;22.40;99.90;;;;;;4941042;29;19939;-55
2023/03/23 06:09:50;;;;;;;;;;;22.40;99.90;;;;;;4941304;29;19953;-56
2023/03/23 06:12:19;;;;;;;;;;;22.40;99.90;;;;;;4928481;29;19907;-54
2023/03/23 06:14:46;;;;;;;;;;;22.40;99.90;;;;;;4938332;29;19994;-55
2023/03/23 06:17:11;;;;;;;;;;;22.40;99.90;;;;;;4937863;29;20334;-54
2023/03/23 06:19:37;;;;;;;;;;;22.30;99.90;;;;;;4968752;28;20026;-54
2023/03/23 06:22:03;;;;;;;;;;;22.30;99.90;;;;;;4938043;29;19958;-54
2023/03/23 06:24:29;;;;;;;;;;;22.30;99.90;;;;;;4937863;29;19981;-53
2023/03/23 06:26:54;;;;;;;;;;;22.30;99.90;;;;;;4937634;29;19957;-53
2023/03/23 06:29:20;;;;;;;;;;;22.30;99.90;;;;;;4938014;29;19914;-53
2023/03/23 06:31:51;;;;;;;;;;;22.30;99.90;;;;;;4937475;29;20398;-55
2023/03/23 06:34:17;;;;;;;;;;;22.30;99.90;;;;;;4937677;29;19907;-55
2023/03/23 06:36:44;;;;;;;;;;;22.30;99.90;;;;;;4937278;29;20381;-55
2023/03/23 06:39:10;;;;;;;;;;;22.30;99.90;;;;;;4937620;29;20264;-55
2023/03/23 06:41:35;;;;;;;;;;;22.30;99.90;;;;;;4937407;29;19961;-54
2023/03/23 06:44:01;;;;;;;;;;;22.30;99.90;;;;;;4937191;29;19958;-55
2023/03/23 06:46:27;;;;;;;;;;;22.30;99.90;;;;;;4937500;29;19910;-54
2023/03/23 06:48:54;;;;;;;;;;;22.30;99.90;;;;;;4937179;29;19913;-53
2023/03/23 06:51:20;;;;;;;;;;;22.30;99.90;;;;;;4937554;29;19907;-54
2023/03/23 06:53:46;;;;;;;;;;;22.30;99.90;;;;;;4937347;29;19929;-54
2023/03/23 06:56:12;;;;;;;;;;;22.30;99.90;;;;;;4937342;29;20286;-54
2023/03/23 06:58:38;;;;;;;;;;;22.30;99.90;;;;;;4936992;29;19915;-55
2023/03/23 07:01:04;;;;;;;;;;;22.30;99.90;;;;;;4967691;28;19918;-56
2023/03/23 07:03:31;;;;;;;;;;;22.30;99.90;;;;;;4936759;29;19914;-56
2023/03/23 07:05:56;;;;;;;;;;;22.30;99.90;;;;;;4936873;29;19907;-53
2023/03/23 07:08:22;;;;;;;;;;;22.30;99.90;;;;;;4937115;29;19914;-55
2023/03/23 07:10:52;;;;;;;;;;;22.40;99.90;;;;;;4936972;29;19907;-54
2023/03/23 07:13:17;;;;;;;;;;;22.40;99.90;;;;;;4936926;29;19907;-54
2023/03/23 07:15:43;;;;;;;;;;;22.30;99.90;;;;;;4936594;29;19929;-55
2023/03/23 07:18:09;;;;;;;;;;;22.30;99.90;;;;;;4936625;29;19922;-55
2023/03/23 07:20:35;;;;;;;;;;;22.30;99.90;;;;;;4936846;29;19907;-56
2023/03/23 07:23:01;;;;;;;;;;;22.30;99.90;;;;;;4936746;29;20108;-55
2023/03/23 07:25:27;;;;;;;;;;;22.30;99.90;;;;;;4936310;29;20364;-54
2023/03/23 07:27:53;;;;;;;;;;;22.40;99.90;;;;;;4951372;29;19913;-54
2023/03/23 07:30:18;;;;;;;;;;;22.40;99.90;;;;;;4936355;29;19921;-56
2023/03/23 07:32:44;;;;;;;;;;;22.40;99.90;;;;;;4936662;29;19961;-56
2023/03/23 07:35:10;;;;;;;;;;;22.40;99.90;;;;;;4936308;29;20013;-55
2023/03/23 07:37:35;;;;;;;;;;;22.40;99.90;;;;;;4936410;29;20479;-55
2023/03/23 07:40:14;;;;;;;;;;;22.50;99.90;;;;;;4936477;29;20363;-55
2023/03/23 07:42:40;;;;;;;;;;;22.40;99.90;;;;;;4936438;29;20260;-55
2023/03/23 07:45:06;;;;;;;;;;;22.40;99.90;;;;;;4936071;29;20002;-55
2023/03/23 07:47:32;;;;;;;;;;;22.40;99.90;;;;;;4936175;29;20402;-55
2023/03/23 07:49:57;;;;;;;;;;;22.50;99.90;;;;;;4936098;29;19914;-55
2023/03/23 07:52:23;;;;;;;;;;;22.50;99.90;;;;;;4936323;29;19911;-55
2023/03/23 07:54:49;;;;;;;;;;;22.50;99.90;;;;;;4950915;29;19907;-56
2023/03/23 07:57:15;;;;;;;;;;;22.50;99.90;;;;;;4935921;29;19914;-55
2023/03/23 07:59:40;;;;;;;;;;;22.50;99.90;;;;;;4935799;29;19969;-55
2023/03/23 08:02:08;;;;;;;;;;;22.60;99.90;;;;;;4935930;29;19915;-54
2023/03/23 08:04:36;;;;;;;;;;;22.50;99.90;;;;;;4936063;29;19907;-55
2023/03/23 08:07:04;;;;;;;;;;;22.50;99.90;;;;;;4936045;29;19911;-56
2023/03/23 08:09:30;;;;;;;;;;;22.60;99.90;;;;;;4935887;29;19907;-55
2023/03/23 08:11:55;;;;;;;;;;;22.60;99.90;;;;;;4935838;29;20086;-55
2023/03/23 08:14:21;;;;;;;;;;;22.60;99.90;;;;;;4935670;29;19910;-55
2023/03/23 08:16:48;;;;;;;;;;;22.50;99.90;;;;;;4935560;29;20323;-54
2023/03/23 08:19:13;;;;;;;;;;;22.60;99.90;;;;;;4935688;29;19907;-54
2023/03/23 08:21:39;;;;;;;;;;;22.60;99.90;;;;;;4935731;29;19914;-54
2023/03/23 08:24:06;;;;;;;;;;;22.60;99.90;;;;;;4935481;29;19907;-54
2023/03/23 08:26:31;;;;;;;;;;;22.60;99.90;;;;;;4935662;29;20410;-54
2023/03/23 08:28:57;;;;;;;;;;;22.60;99.90;;;;;;4935650;29;19907;-54
2023/03/23 08:31:23;;;;;;;;;;;22.60;99.90;;;;;;4935496;29;19907;-55
2023/03/23 08:33:49;;;;;;;;;;;22.60;99.90;;;;;;4935415;29;20012;-55
2023/03/23 08:36:14;;;;;;;;;;;22.70;99.90;;;;;;4935532;29;19935;-55
2023/03/23 08:38:40;;;;;;;;;;;22.70;99.90;;;;;;4934839;29;19914;-54
2023/03/23 08:41:07;;;;;;;;;;;22.70;99.90;;;;;;4935457;29;19907;-55
2023/03/23 08:43:33;;;;;;;;;;;22.70;99.90;;;;;;4935258;29;19906;-55
2023/03/23 08:45:59;;;;;;;;;;;22.70;99.90;;;;;;4935673;29;19907;-54
2023/03/23 08:48:24;;;;;;;;;;;22.70;99.90;;;;;;4935277;29;19910;-55
2023/03/23 08:50:51;;;;;;;;;;;22.70;99.90;;;;;;4935413;29;19910;-55
2023/03/23 08:53:17;;;;;;;;;;;22.70;99.90;;;;;;4935360;29;19930;-55
2023/03/23 08:55:43;;;;;;;;;;;22.70;99.90;;;;;;4935534;29;20434;-57
2023/03/23 08:58:09;;;;;;;;;;;22.70;99.90;;;;;;4935073;29;19923;-54
2023/03/23 09:00:35;;;;;;;;;;;22.80;99.90;;;;;;4934883;29;19994;-56
2023/03/23 09:03:01;;;;;;;;;;;22.80;99.90;;;;;;4935368;29;20406;-55
2023/03/23 09:05:27;;;;;;;;;;;22.80;99.90;;;;;;4935180;29;20363;-57
2023/03/23 09:07:54;;;;;;;;;;;22.80;99.90;;;;;;4935274;29;19946;-55
2023/03/23 09:10:21;;;;;;;;;;;22.80;99.90;;;;;;4935127;29;19993;-55
2023/03/23 09:12:47;;;;;;;;;;;22.80;99.90;;;;;;4949796;29;20275;-54
2023/03/23 09:15:14;;;;;;;;;;;22.80;99.90;;;;;;4935179;29;19907;-55
2023/03/23 09:17:44;;;;;;;;;;;22.80;99.90;;;;;;4935127;29;20260;-55
2023/03/23 09:20:11;;;;;;;;;;;22.80;99.90;;;;;;4934921;29;20030;-55
2023/03/23 09:22:40;;;;;;;;;;;22.80;99.90;;;;;;4935065;29;19914;-56
2023/03/23 09:25:07;;;;;;;;;;;22.80;99.90;;;;;;4935013;29;19907;-55
2023/03/23 09:27:33;;;;;;;;;;;22.90;99.90;;;;;;4934862;29;19997;-56
2023/03/23 09:29:58;;;;;;;;;;;22.90;99.90;;;;;;4935068;29;19942;-55
2023/03/23 09:32:24;;;;;;;;;;;22.90;99.90;;;;;;4934699;29;20367;-54
2023/03/23 09:34:51;;;;;;;;;;;22.90;99.90;;;;;;4934897;29;19907;-56
2023/03/23 09:37:17;;;;;;;;;;;22.90;99.90;;;;;;4934701;29;20415;-53
2023/03/23 09:39:42;;;;;;;;;;;22.90;99.90;;;;;;4934850;29;19907;-53
2023/03/23 09:42:31;;;;;;;;;;;22.90;99.90;;;;;;4934945;29;19907;-53
2023/03/23 09:45:06;;;;;;;;;;;22.90;99.90;;;;;;4965758;28;19942;-54
2023/03/23 09:47:36;;;;;;;;;;;22.90;99.90;;;;;;4922510;29;19956;-53
2023/03/23 09:50:08;;;;;;;;;;;23.00;99.90;;;;;;4937179;29;19915;-53
2023/03/23 09:52:57;;;;;;;;;;;23.00;99.90;;;;;;4938423;29;19962;-53
2023/03/23 09:55:22;;;;;;;;;;;23.00;99.90;;;;;;4935285;29;19910;-53
2023/03/23 09:57:51;;;;;;;;;;;23.00;99.90;;;;;;4952866;29;20351;-53
2023/03/23 10:00:30;;;;;;;;;;;23.10;99.90;;;;;;4952659;29;20288;-54
2023/03/23 10:03:17;;;;;;;;;;;23.10;99.90;;;;;;4938213;29;19911;-53
2023/03/23 10:05:50;;;;;;;;;;;23.10;99.90;;;;;;4938265;29;19954;-53
2023/03/23 10:08:18;;;;;;;;;;;23.10;99.90;;;;;;4938145;29;19938;-55
2023/03/23 10:10:43;;;;;;;;;;;23.10;99.90;;;;;;4938022;29;19906;-53
2023/03/23 10:13:23;;;;;;;;;;;23.20;99.90;;;;;;4938047;29;19933;-53
2023/03/23 10:15:49;;;;;;;;;;;23.20;99.90;;;;;;4937905;29;19906;-53
2023/03/23 10:18:31;;;;;;;;;;;23.30;99.90;;;;;;4937888;29;19962;-54
2023/03/23 10:20:58;;;;;;;;;;;23.30;99.90;;;;;;4925782;29;19934;-54
2023/03/23 10:23:35;;;;;;;;;;;23.30;99.90;;;;;;4937790;29;20339;-54
2023/03/23 10:26:04;;;;;;;;;;;23.30;99.90;;;;;;4938093;29;19907;-54
2023/03/23 10:28:35;;;;;;;;;;;23.40;99.90;;;;;;4937630;29;19930;-54
2023/03/23 10:31:01;;;;;;;;;;;23.40;99.90;;;;;;4937952;29;20363;-54
2023/03/23 10:33:38;;;;;;;;;;;23.40;99.90;;;;;;4937514;29;20267;-53
2023/03/23 10:36:25;;;;;;;;;;;23.40;99.90;;;;;;4937881;29;19907;-53
2023/03/23 10:38:56;;;;;;;;;;;23.50;99.90;;;;;;4921253;29;19979;-54
2023/03/23 10:41:22;;;;;;;;;;;23.50;99.90;;;;;;4937630;29;19918;-53
2023/03/23 10:43:49;;;;;;;;;;;23.50;99.90;;;;;;4937262;29;19906;-54
2023/03/23 10:46:27;;;;;;;;;;;23.60;99.90;;;;;;4937450;29;20008;-53
2023/03/23 10:48:55;;;;;;;;;;;23.60;99.90;;;;;;4937307;29;19990;-53
2023/03/23 10:51:23;;;;;;;;;;;23.60;99.90;;;;;;4968131;28;19907;-53
2023/03/23 10:53:50;;;;;;;;;;;23.60;99.90;;;;;;4937024;29;20005;-53
2023/03/23 10:56:24;;;;;;;;;;;23.70;99.90;;;;;;4937297;29;19907;-53
2023/03/23 10:58:50;;;;;;;;;;;23.70;99.90;;;;;;4936950;29;19914;-54
2023/03/23 11:01:18;;;;;;;;;;;23.70;99.90;;;;;;4936257;29;19969;-53
2023/03/23 11:03:48;;;;;;;;;;;23.70;99.90;;;;;;4937170;29;19915;-53
2023/03/23 11:06:25;;;;;;;;;;;23.80;99.90;;;;;;4937037;29;20371;-54
2023/03/23 11:08:53;;;;;;;;;;;23.80;99.90;;;;;;4936967;29;19910;-54
2023/03/23 11:11:21;;;;;;;;;;;23.80;99.90;;;;;;4936928;29;19914;-54
2023/03/23 11:13:48;;;;;;;;;;;23.90;99.90;;;;;;4936794;29;19914;-53
2023/03/23 11:16:27;;;;;;;;;;;23.90;99.90;;;;;;4936838;29;20394;-52
2023/03/23 11:18:53;;;;;;;;;;;23.90;99.90;;;;;;4936798;29;19922;-54
2023/03/23 11:21:20;;;;;;;;;;;23.90;99.90;;;;;;4936822;29;19907;-53
2023/03/23 11:24:05;;;;;;;;;;;24.00;99.90;;;;;;4967206;28;19934;-53
2023/03/23 11:26:33;;;;;;;;;;;24.00;99.90;;;;;;4932283;29;20426;-54
2023/03/23 11:28:58;;;;;;;;;;;24.00;99.90;;;;;;4933567;29;19910;-57
2023/03/23 11:31:27;;;;;;;;;;;24.00;99.90;;;;;;4936757;29;19914;-59
2023/03/23 11:33:52;;;;;;;;;;;24.10;99.90;;;;;;4936472;29;19914;-52
2023/03/23 11:36:19;;;;;;;;;;;24.10;99.90;;;;;;4936418;29;19907;-54
2023/03/23 11:38:45;;;;;;;;;;;24.10;99.90;;;;;;4967173;28;19914;-54
2023/03/23 11:41:12;;;;;;;;;;;24.10;99.90;;;;;;4936486;29;19907;-53
2023/03/23 11:43:43;;;;;;;;;;;24.10;99.90;;;;;;4936310;29;19997;-54
2023/03/23 11:46:13;;;;;;;;;;;24.10;99.90;;;;;;4936503;29;19911;-55
2023/03/23 11:48:46;;;;;;;;;;;24.20;99.90;;;;;;4936312;29;19986;-53
2023/03/23 11:51:14;;;;;;;;;;;24.20;99.90;;;;;;4936103;29;19907;-54
2023/03/23 11:53:58;;;;;;;;;;;24.20;99.90;;;;;;4936191;29;19956;-53
2023/03/23 11:56:29;;;;;;;;;;;24.20;99.90;;;;;;4936259;29;20346;-54
2023/03/23 11:58:56;;;;;;;;;;;24.30;99.90;;;;;;4935860;29;19919;-53
2023/03/23 12:01:31;;;;;;;;;;;24.20;99.90;;;;;;4935774;29;20002;-54
2023/03/23 12:04:09;;;;;;;;;;;24.30;99.90;;;;;;4935852;29;19911;-54
2023/03/23 12:06:38;;;;;;;;;;;24.30;99.90;;;;;;4935970;29;19910;-53
2023/03/23 12:09:12;;;;;;;;;;;24.30;99.90;;;;;;4935948;29;19907;-54
2023/03/23 12:12:05;;;;;;;;;;;24.30;99.90;;;;;;4935973;29;20319;-54
2023/03/23 12:14:46;;;;;;;;;;;24.30;99.90;;;;;;4935388;29;20367;-53
2023/03/23 12:17:17;;;;;;;;;;;24.40;99.90;;;;;;4935705;29;20443;-54
2023/03/23 12:19:43;;;;;;;;;;;24.40;99.90;;;;;;4935687;29;19906;-54
2023/03/23 12:22:08;;;;;;;;;;;24.40;99.90;;;;;;4935745;29;19914;-55
2023/03/23 12:24:40;;;;;;;;;;;24.40;99.90;;;;;;4935703;29;20351;-54
2023/03/23 12:27:06;;;;;;;;;;;24.40;99.90;;;;;;4935530;29;19906;-54
2023/03/23 12:30:10;;;;;;;;;;;24.50;99.90;;;;;;4935564;29;19921;-53
2023/03/23 12:32:42;;;;;;;;;;;24.50;99.90;;;;;;4914410;29;19907;-54
2023/03/23 12:35:11;;;;;;;;;;;24.50;99.90;;;;;;4914606;29;19914;-53
2023/03/23 12:37:46;;;;;;;;;;;24.50;99.90;;;;;;4924202;29;20286;-54
2023/03/23 12:40:11;;;;;;;;;;;24.50;99.90;;;;;;4935497;29;19907;-54
2023/03/23 12:42:43;;;;;;;;;;;24.50;99.90;;;;;;4935589;29;19913;-54
2023/03/23 12:45:38;;;;;;;;;;;24.50;99.90;;;;;;4950052;29;19953;-55
2023/03/23 12:48:07;;;;;;;;;;;24.60;99.90;;;;;;4930589;29;19910;-54
2023/03/23 12:50:35;;;;;;;;;;;24.60;99.90;;;;;;4935202;29;19915;-54
2023/03/23 12:53:11;;;;;;;;;;;24.60;99.90;;;;;;4935266;29;19907;-53
2023/03/23 12:55:46;;;;;;;;;;;24.60;99.90;;;;;;4935313;29;19910;-54
2023/03/23 12:58:20;;;;;;;;;;;24.60;99.90;;;;;;4935103;29;19965;-54
2023/03/23 13:00:52;;;;;;;;;;;24.70;99.90;;;;;;4935018;29;19919;-55
2023/03/23 13:03:21;;;;;;;;;;;24.70;99.90;;;;;;4935020;29;20422;-54
2023/03/23 13:05:56;;;;;;;;;;;24.70;99.90;;;;;;4935158;29;19906;-53
2023/03/23 13:08:26;;;;;;;;;;;24.70;99.90;;;;;;4935072;29;19914;-55
2023/03/23 13:10:55;;;;;;;;;;;24.70;99.90;;;;;;4935144;29;19997;-53
2023/03/23 13:13:41;;;;;;;;;;;24.70;99.90;;;;;;4935082;29;20010;-53
2023/03/23 13:16:07;;;;;;;;;;;24.70;99.90;;;;;;4935057;29;19906;-53
2023/03/23 13:18:40;;;;;;;;;;;24.70;99.90;;;;;;4934607;29;19945;-53
2023/03/23 13:21:09;;;;;;;;;;;24.70;99.90;;;;;;4965896;28;19907;-54
2023/03/23 13:23:37;;;;;;;;;;;24.70;99.90;;;;;;4935041;29;19961;-54
2023/03/23 13:26:08;;;;;;;;;;;24.70;99.90;;;;;;4938812;29;19913;-55
2023/03/23 13:28:43;;;;;;;;;;;24.80;99.90;;;;;;4938792;29;19913;-53
2023/03/23 13:31:12;;;;;;;;;;;24.80;99.90;;;;;;4938730;29;19907;-54
2023/03/23 13:33:38;;;;;;;;;;;24.80;99.90;;;;;;4938669;29;20367;-54
2023/03/23 13:36:14;;;;;;;;;;;24.80;99.90;;;;;;4938787;29;20324;-54
2023/03/23 13:38:47;;;;;;;;;;;24.80;99.90;;;;;;4938505;29;19919;-54
2023/03/23 13:41:13;;;;;;;;;;;24.80;99.90;;;;;;4938672;29;19946;-54
2023/03/23 13:43:39;;;;;;;;;;;24.80;99.90;;;;;;4938543;29;19918;-54
2023/03/23 13:46:10;;;;;;;;;;;24.90;99.90;;;;;;4938674;29;19946;-55
2023/03/23 13:49:01;;;;;;;;;;;24.90;99.90;;;;;;4938508;29;19934;-55
2023/03/23 13:51:31;;;;;;;;;;;24.90;99.90;;;;;;4937202;29;19950;-54
2023/03/23 13:54:29;;;;;;;;;;;24.90;99.90;;;;;;4938606;29;19906;-54
2023/03/23 13:56:56;;;;;;;;;;;24.90;99.90;;;;;;4926433;29;19907;-54
2023/03/23 13:59:33;;;;;;;;;;;24.90;99.90;;;;;;4938255;29;19910;-55
2023/03/23 14:02:17;;;;;;;;;;;24.90;99.90;;;;;;4938158;29;19926;-55
2023/03/23 14:04:46;;;;;;;;;;;24.90;99.90;;;;;;4938566;29;19906;-54
2023/03/23 14:07:12;;;;;;;;;;;24.90;99.90;;;;;;4938549;29;19910;-54
2023/03/23 14:09:39;;;;;;;;;;;24.90;99.90;;;;;;4938116;29;19962;-54
2023/03/23 14:12:13;;;;;;;;;;;24.90;99.90;;;;;;4938037;29;19907;-54
2023/03/23 14:14:50;;;;;;;;;;;24.90;99.90;;;;;;4968836;28;19907;-55
2023/03/23 14:17:15;;;;;;;;;;;25.00;99.90;;;;;;4938013;29;19914;-53
2023/03/23 14:19:42;;;;;;;;;;;24.90;99.90;;;;;;4938004;29;19913;-54
2023/03/23 14:22:22;;;;;;;;;;;24.90;99.90;;;;;;4937986;29;19917;-54
2023/03/23 14:24:48;;;;;;;;;;;25.00;99.90;;;;;;4952683;29;20284;-55